createdAt,value
2022-11-03T00:01:39.812Z,32.27
2022-11-03T00:04:09.473Z,32.31
2022-11-03T00:06:39.788Z,32.13
2022-11-03T00:09:09.789Z,32.56
2022-11-03T00:11:40.099Z,32.67
2022-11-03T00:14:10.240Z,32.38
2022-11-03T00:16:38.938Z,32.78
2022-11-03T00:19:07.814Z,33.02
2022-11-03T00:21:35.905Z,33.16
2022-11-03T00:24:06.527Z,32.74
2022-11-03T00:26:35.976Z,32.44
2022-11-03T00:29:08.224Z,32.48
2022-11-03T00:31:37.435Z,32.98
2022-11-03T00:34:07.260Z,33.26
2022-11-03T00:36:37.987Z,32.69
2022-11-03T00:39:08.200Z,33.56
2022-11-03T00:41:36.850Z,33.96
2022-11-03T00:44:05.497Z,33.57
2022-11-03T00:46:35.474Z,33.29
2022-11-03T00:49:04.707Z,33.40
2022-11-03T00:51:34.625Z,33.23
2022-11-03T00:54:04.464Z,33.62
2022-11-03T00:56:35.580Z,33.54
2022-11-03T00:59:05.277Z,33.88
2022-11-03T01:01:36.257Z,33.60
2022-11-03T01:04:23.408Z,33.85
2022-11-03T01:06:54.379Z,33.38
2022-11-03T01:09:24.418Z,33.63
2022-11-03T01:11:58.287Z,33.15
2022-11-03T01:14:28.020Z,33.58
2022-11-03T01:16:56.119Z,33.50
2022-11-03T01:19:25.404Z,33.42
2022-11-03T01:21:53.856Z,33.46
2022-11-03T01:24:22.777Z,33.54
2022-11-03T01:26:50.883Z,33.68
2022-11-03T01:29:20.587Z,33.53
2022-11-03T01:31:49.092Z,33.41
2022-11-03T01:34:18.789Z,33.20
2022-11-03T01:36:47.731Z,33.55
2022-11-03T01:39:18.239Z,33.37
2022-11-03T01:41:49.040Z,33.41
2022-11-03T01:44:33.390Z,32.58
2022-11-03T01:47:08.838Z,33.09
2022-11-03T01:49:41.359Z,33.26
2022-11-03T01:52:13.012Z,33.65
2022-11-03T01:54:43.221Z,33.95
2022-11-03T01:57:15.085Z,33.82
2022-11-03T01:59:45.639Z,33.68
2022-11-03T02:02:14.250Z,34.05
2022-11-03T02:04:43.000Z,34.06
2022-11-03T02:07:16.977Z,33.48
2022-11-03T02:09:45.390Z,34.03
2022-11-03T02:12:13.497Z,33.84
2022-11-03T02:14:46.711Z,33.83
2022-11-03T02:17:16.030Z,33.94
2022-11-03T02:19:46.824Z,34.12
2022-11-03T02:22:41.785Z,33.76
2022-11-03T02:25:17.680Z,33.62
2022-11-03T02:27:47.317Z,33.86
2022-11-03T02:30:16.071Z,34.16
2022-11-03T02:32:52.719Z,33.64
2022-11-03T02:35:23.576Z,33.89
2022-11-03T02:37:55.720Z,33.51
2022-11-03T02:40:29.061Z,33.85
2022-11-03T02:43:00.444Z,34.05
2022-11-03T02:45:29.481Z,34.07
2022-11-03T02:48:00.446Z,33.81
2022-11-03T02:50:29.167Z,32.84
2022-11-03T02:52:57.623Z,33.87
2022-11-03T02:55:34.150Z,33.53
2022-11-03T02:58:09.553Z,33.82
2022-11-03T03:00:43.914Z,33.78
2022-11-03T03:03:15.692Z,33.74
2022-11-03T03:05:46.832Z,34.09
2022-11-03T03:08:15.810Z,34.11
2022-11-03T03:10:45.371Z,34.08
2022-11-03T03:13:16.915Z,34.26
2022-11-03T03:15:47.963Z,34.21
2022-11-03T03:18:24.600Z,33.81
2022-11-03T03:20:57.612Z,34.09
2022-11-03T03:23:28.004Z,34.64
2022-11-03T03:26:00.137Z,34.60
2022-11-03T03:28:34.075Z,34.35
2022-11-03T03:31:03.007Z,34.93
2022-11-03T03:33:31.320Z,35.19
2022-11-03T03:36:01.142Z,34.72
2022-11-03T03:38:33.972Z,34.90
2022-11-03T03:41:05.520Z,35.39
2022-11-03T03:43:37.801Z,34.86
2022-11-03T03:46:09.282Z,35.13
2022-11-03T03:48:37.585Z,35.28
2022-11-03T03:51:06.930Z,35.17
2022-11-03T03:53:35.024Z,34.96
2022-11-03T03:56:05.900Z,35.03
2022-11-03T03:58:34.003Z,34.85
2022-11-03T04:01:03.843Z,35.10
2022-11-03T04:03:32.097Z,35.51
2022-11-03T04:06:00.310Z,35.41
2022-11-03T04:08:28.642Z,35.44
2022-11-03T04:11:14.422Z,35.72
2022-11-03T04:14:00.209Z,35.45
2022-11-03T04:16:47.370Z,35.47
2022-11-03T04:19:33.413Z,35.27
2022-11-03T04:22:21.427Z,35.67
2022-11-03T04:24:51.185Z,35.43
2022-11-03T04:27:37.523Z,34.67
2022-11-03T04:30:15.590Z,35.03
2022-11-03T04:32:45.915Z,35.12
2022-11-03T04:35:18.785Z,34.97
2022-11-03T04:37:48.034Z,35.72
2022-11-03T04:40:18.511Z,35.40
2022-11-03T04:42:47.569Z,35.57
2022-11-03T04:45:22.946Z,35.16
2022-11-03T04:47:53.529Z,35.53
2022-11-03T04:50:24.658Z,35.58
2022-11-03T04:52:55.991Z,35.28
2022-11-03T04:55:24.458Z,35.85
2022-11-03T04:57:56.332Z,35.69
2022-11-03T05:00:25.349Z,35.91
2022-11-03T05:02:56.321Z,35.54
2022-11-03T05:05:27.407Z,35.80
2022-11-03T05:07:56.978Z,35.97
2022-11-03T05:10:26.964Z,35.90
2022-11-03T05:12:55.653Z,36.18
2022-11-03T05:15:31.163Z,35.50
2022-11-03T05:18:01.600Z,35.64
2022-11-03T05:20:36.218Z,35.63
2022-11-03T05:23:05.631Z,35.99
2022-11-03T05:25:41.582Z,35.82
2022-11-03T05:28:16.213Z,35.81
2022-11-03T05:30:44.686Z,36.69
2022-11-03T05:33:20.443Z,35.78
2022-11-03T05:35:49.240Z,36.50
2022-11-03T05:38:19.274Z,36.45
2022-11-03T05:40:47.964Z,36.80
2022-11-03T05:43:16.550Z,36.68
2022-11-03T05:45:45.838Z,36.63
2022-11-03T05:48:19.995Z,36.18
2022-11-03T05:50:48.351Z,36.51
2022-11-03T05:53:29.103Z,36.28
2022-11-03T05:56:02.074Z,36.50
2022-11-03T05:58:35.152Z,36.92
2022-11-03T06:01:07.958Z,36.77
2022-11-03T06:03:40.215Z,36.54
2022-11-03T06:06:17.732Z,35.77
2022-11-03T06:08:46.335Z,36.06
2022-11-03T06:11:26.050Z,35.17
2022-11-03T06:13:54.259Z,34.61
2022-11-03T06:16:33.772Z,32.70
2022-11-03T06:19:11.979Z,32.16
2022-11-03T06:21:44.435Z,32.35
2022-11-03T06:24:13.128Z,32.51
2022-11-03T06:26:43.063Z,32.36
2022-11-03T06:29:14.641Z,32.31
2022-11-03T06:31:44.305Z,31.95
2022-11-03T06:34:31.559Z,30.17
2022-11-03T06:37:00.866Z,28.68
2022-11-03T06:39:29.006Z,26.96
2022-11-03T06:41:57.519Z,25.57
2022-11-03T06:44:26.880Z,24.98
2022-11-03T06:46:55.957Z,24.43
2022-11-03T06:49:32.318Z,23.25
2022-11-03T06:52:04.223Z,23.19
2022-11-03T06:54:32.292Z,22.58
2022-11-03T06:57:00.978Z,21.56
2022-11-03T06:59:29.046Z,20.81
2022-11-03T07:01:57.623Z,20.57
2022-11-03T07:04:29.310Z,19.03
2022-11-03T07:07:02.371Z,18.24
2022-11-03T07:09:30.594Z,18.43
2022-11-03T07:12:01.163Z,18.14
2022-11-03T07:14:30.618Z,17.97
2022-11-03T07:17:02.563Z,17.20
2022-11-03T07:19:32.066Z,17.43
2022-11-03T07:22:03.104Z,17.35
2022-11-03T07:24:32.837Z,16.36
2022-11-03T07:27:07.090Z,16.27
2022-11-03T07:29:35.215Z,16.69
2022-11-03T07:32:04.016Z,16.75
2022-11-03T07:34:34.036Z,16.50
2022-11-03T07:37:04.461Z,16.75
2022-11-03T07:39:36.406Z,16.33
2022-11-03T07:42:13.181Z,15.98
2022-11-03T07:44:41.797Z,15.70
2022-11-03T07:47:13.746Z,15.08
2022-11-03T07:49:42.506Z,14.45
2022-11-03T07:52:16.031Z,13.30
2022-11-03T07:54:44.280Z,12.78
2022-11-03T07:57:15.276Z,12.91
2022-11-03T07:59:44.779Z,12.55
2022-11-03T08:02:27.729Z,12.52
2022-11-03T08:04:55.913Z,12.78
2022-11-03T08:07:25.653Z,12.49
2022-11-03T08:09:53.824Z,12.83
2022-11-03T08:12:22.303Z,12.83
2022-11-03T08:14:50.602Z,12.56
2022-11-03T08:17:19.033Z,12.04
2022-11-03T08:19:47.181Z,11.45
2022-11-03T08:22:15.776Z,11.52
2022-11-03T08:24:45.428Z,10.81
2022-11-03T08:27:14.075Z,11.49
2022-11-03T08:29:42.297Z,11.37
2022-11-03T08:32:10.612Z,11.55
2022-11-03T08:34:38.919Z,11.69
2022-11-03T08:37:07.385Z,11.66
2022-11-03T08:39:36.271Z,12.45
2022-11-03T08:42:06.153Z,11.14
2022-11-03T08:44:34.167Z,11.21
2022-11-03T08:47:02.604Z,11.43
2022-11-03T08:49:30.721Z,12.09
2022-11-03T08:51:59.111Z,11.73
2022-11-03T08:54:27.170Z,12.00
2022-11-03T08:56:55.551Z,11.40
2022-11-03T08:59:24.989Z,10.41
2022-11-03T09:01:53.532Z,9.95
2022-11-03T09:04:21.792Z,8.92
2022-11-03T09:06:50.315Z,9.62
2022-11-03T09:12:07.143Z,9.67
2022-11-03T09:14:36.753Z,9.68
2022-11-03T09:17:05.180Z,10.12
2022-11-03T09:19:35.843Z,10.13
2022-11-03T09:22:04.180Z,9.28
2022-11-03T09:24:32.692Z,8.65
2022-11-03T09:27:02.477Z,7.63
2022-11-03T09:29:51.646Z,7.75
2022-11-03T09:32:23.522Z,8.32
2022-11-03T09:34:52.143Z,9.08
2022-11-03T09:37:20.458Z,8.77
2022-11-03T09:39:48.879Z,7.80
2022-11-03T09:42:17.984Z,6.73
2022-11-03T09:44:49.096Z,6.11
2022-11-03T09:47:24.290Z,5.72
2022-11-03T09:49:52.965Z,6.07
2022-11-03T09:52:23.907Z,6.68
2022-11-03T09:54:55.371Z,7.14
2022-11-03T09:57:24.173Z,6.98
2022-11-03T09:59:52.800Z,6.53
2022-11-03T10:02:26.948Z,5.84
2022-11-03T10:04:57.826Z,5.74
2022-11-03T10:07:27.760Z,5.59
2022-11-03T10:09:56.269Z,5.89
2022-11-03T10:12:25.684Z,5.87
2022-11-03T10:14:54.198Z,5.20
2022-11-03T10:17:25.795Z,4.54
2022-11-03T10:19:58.096Z,4.37
2022-11-03T10:22:26.759Z,4.40
2022-11-03T10:25:28.924Z,3.92
2022-11-03T10:28:15.602Z,4.50
2022-11-03T10:31:11.409Z,4.68
2022-11-03T10:33:42.527Z,5.24
2022-11-03T10:36:26.232Z,5.44
2022-11-03T10:38:56.416Z,5.52
2022-11-03T10:41:25.943Z,5.87
2022-11-03T10:44:05.880Z,5.63
2022-11-03T10:46:51.249Z,5.57
2022-11-03T10:49:21.171Z,5.36
2022-11-03T10:51:52.989Z,5.87
2022-11-03T10:54:23.027Z,5.42
2022-11-03T10:56:52.375Z,4.78
2022-11-03T10:59:22.081Z,4.69
2022-11-03T11:01:50.638Z,5.29
2022-11-03T11:04:22.013Z,6.19
2022-11-03T11:06:52.792Z,6.33
2022-11-03T11:09:25.627Z,7.20
2022-11-03T11:12:01.747Z,6.85
2022-11-03T11:14:39.376Z,6.65
2022-11-03T11:17:41.061Z,5.93
2022-11-03T11:20:30.536Z,5.85
2022-11-03T11:23:49.312Z,5.46
2022-11-03T11:26:32.179Z,5.52
2022-11-03T11:29:46.056Z,5.96
2022-11-03T11:32:47.978Z,7.27
2022-11-03T11:36:10.083Z,7.31
2022-11-03T11:39:05.734Z,7.34
2022-11-03T11:42:10.532Z,7.87
2022-11-03T11:44:57.872Z,9.35
2022-11-03T11:47:29.193Z,10.48
2022-11-03T11:50:39.036Z,10.18
2022-11-03T11:53:15.571Z,11.10
2022-11-03T11:55:47.019Z,11.40
2022-11-03T11:58:20.665Z,12.64
2022-11-03T12:00:55.036Z,12.90
2022-11-03T12:03:28.110Z,12.77
2022-11-03T12:05:56.405Z,13.41
2022-11-03T12:08:30.798Z,12.92
2022-11-03T12:11:01.971Z,13.40
2022-11-03T12:13:53.137Z,13.66
2022-11-03T12:16:34.915Z,13.98
2022-11-03T12:19:38.512Z,13.96
2022-11-03T12:22:09.093Z,14.49
2022-11-03T12:24:40.623Z,14.76
2022-11-03T12:27:43.402Z,14.07
2022-11-03T12:30:19.724Z,14.62
2022-11-03T12:32:48.667Z,14.77
2022-11-03T12:35:17.350Z,15.83
2022-11-03T12:37:46.462Z,16.01
2022-11-03T12:40:15.017Z,15.48
2022-11-03T12:42:43.512Z,15.85
2022-11-03T12:45:14.000Z,16.00
2022-11-03T12:47:43.747Z,15.84
2022-11-03T12:50:12.421Z,16.23
2022-11-03T12:52:40.750Z,16.85
2022-11-03T12:55:09.897Z,17.07
2022-11-03T12:57:38.127Z,17.31
2022-11-03T13:00:07.861Z,17.16
2022-11-03T13:02:36.296Z,17.22
2022-11-03T13:05:07.021Z,16.90
2022-11-03T13:07:35.354Z,17.13
2022-11-03T13:10:04.910Z,17.05
2022-11-03T13:12:33.940Z,17.30
2022-11-03T13:15:04.232Z,16.89
2022-11-03T13:17:52.018Z,17.88
2022-11-03T13:20:22.304Z,17.49
2022-11-03T13:22:50.608Z,17.23
2022-11-03T13:25:19.697Z,17.53
2022-11-03T13:27:53.847Z,17.87
2022-11-03T13:30:22.665Z,17.93
2022-11-03T13:32:50.891Z,17.80
2022-11-03T13:35:19.531Z,17.94
2022-11-03T13:37:49.190Z,18.60
2022-11-03T13:43:06.545Z,19.56
2022-11-03T13:45:35.433Z,20.43
2022-11-03T13:49:08.775Z,19.91
2022-11-03T13:50:53.779Z,19.62
2022-11-03T13:56:18.967Z,19.12
2022-11-03T14:01:38.827Z,19.07
2022-11-03T14:06:55.641Z,19.58
2022-11-03T14:09:25.468Z,20.15
2022-11-03T14:12:11.412Z,19.97
2022-11-03T14:14:39.536Z,19.85
2022-11-03T14:17:08.000Z,19.79
2022-11-03T14:19:42.921Z,19.88
2022-11-03T14:22:13.485Z,20.28
2022-11-03T14:24:43.019Z,20.31
2022-11-03T14:27:11.476Z,20.80
2022-11-03T14:29:39.816Z,20.79
2022-11-03T14:32:08.575Z,21.33
2022-11-03T14:34:37.130Z,21.35
2022-11-03T14:37:06.085Z,22.03
2022-11-03T14:39:34.427Z,21.91
2022-11-03T14:42:03.665Z,22.81
2022-11-03T14:44:32.617Z,22.67
2022-11-03T14:47:01.888Z,22.65
2022-11-03T14:49:30.806Z,22.82
2022-11-03T14:51:59.653Z,22.83
2022-11-03T14:54:28.191Z,23.05
2022-11-03T14:56:56.394Z,23.51
2022-11-03T14:59:26.339Z,23.21
2022-11-03T15:01:55.474Z,23.57
2022-11-03T15:04:24.306Z,24.24
2022-11-03T15:06:52.559Z,24.51
2022-11-03T15:09:21.113Z,24.31
2022-11-03T15:11:49.193Z,24.34
2022-11-03T15:14:17.735Z,24.36
2022-11-03T15:16:48.199Z,24.53
2022-11-03T15:19:16.339Z,24.30
2022-11-03T15:21:44.587Z,24.59
2022-11-03T15:27:01.060Z,24.51
2022-11-03T15:29:29.631Z,24.63
2022-11-03T15:31:59.013Z,24.56
2022-11-03T15:34:27.601Z,25.05
2022-11-03T15:36:55.744Z,24.64
2022-11-03T15:39:24.227Z,24.88
2022-11-03T15:41:52.297Z,24.97
2022-11-03T15:44:20.661Z,25.35
2022-11-03T15:46:48.761Z,25.66
2022-11-03T15:49:18.152Z,25.37
2022-11-03T15:51:46.810Z,25.80
2022-11-03T15:54:14.908Z,25.69
2022-11-03T15:56:43.500Z,25.37
2022-11-03T15:59:11.732Z,26.20
2022-11-03T16:01:40.445Z,25.99
2022-11-03T16:04:08.940Z,25.86
2022-11-03T16:07:07.513Z,25.91
2022-11-03T16:09:27.223Z,26.22
2022-11-03T16:11:55.577Z,26.53
2022-11-03T16:14:23.701Z,26.29
2022-11-03T16:16:51.896Z,26.08
2022-11-03T16:19:20.208Z,26.47
2022-11-03T16:21:49.915Z,26.32
2022-11-03T16:24:18.496Z,26.42
2022-11-03T16:26:46.850Z,26.50
2022-11-03T16:29:15.207Z,26.80
2022-11-03T16:31:43.444Z,26.69
2022-11-03T16:34:11.923Z,26.28
2022-11-03T16:36:40.185Z,26.98
2022-11-03T16:39:10.752Z,27.19
2022-11-03T16:41:39.479Z,27.75
2022-11-03T16:44:08.330Z,27.51
2022-11-03T16:46:36.641Z,27.00
2022-11-03T16:49:05.081Z,27.35
2022-11-03T16:51:33.602Z,27.58
2022-11-03T16:54:02.026Z,27.72
2022-11-03T16:56:31.697Z,27.51
2022-11-03T16:59:00.110Z,27.71
2022-11-03T17:01:28.584Z,27.98
2022-11-03T17:03:57.272Z,27.60
2022-11-03T17:06:25.588Z,28.14
2022-11-03T17:08:54.106Z,27.74
2022-11-03T17:14:17.955Z,27.48
2022-11-03T17:16:47.302Z,27.81
2022-11-03T17:19:15.719Z,27.70
2022-11-03T17:21:44.675Z,27.44
2022-11-03T17:24:13.496Z,28.03
2022-11-03T17:26:51.498Z,27.03
2022-11-03T17:29:24.494Z,27.21
2022-11-03T17:31:53.284Z,28.00
2022-11-03T17:34:24.385Z,27.19
2022-11-03T17:36:53.894Z,27.49
2022-11-03T17:39:29.312Z,27.31
2022-11-03T17:42:05.589Z,26.56
2022-11-03T17:44:35.133Z,27.21
2022-11-03T17:47:03.524Z,27.33
2022-11-03T17:49:31.839Z,27.83
2022-11-03T17:52:00.252Z,27.79
2022-11-03T17:54:30.051Z,27.43
2022-11-03T17:56:58.739Z,27.70
2022-11-03T17:59:27.338Z,27.15
2022-11-03T18:01:57.375Z,27.31
2022-11-03T18:04:25.667Z,27.15
2022-11-03T18:06:54.024Z,27.00
2022-11-03T18:09:22.990Z,27.62
2022-11-03T18:12:09.064Z,27.57
2022-11-03T18:14:37.217Z,27.93
2022-11-03T18:17:07.154Z,27.65
2022-11-03T18:19:35.518Z,27.67
2022-11-03T18:22:04.221Z,27.29
2022-11-03T18:24:32.376Z,27.21
2022-11-03T18:27:00.821Z,27.69
2022-11-03T18:29:29.052Z,27.59
2022-11-03T18:31:58.023Z,27.32
2022-11-03T18:34:28.270Z,27.05
2022-11-03T18:36:56.684Z,27.59
2022-11-03T18:39:26.412Z,27.26
2022-11-03T18:41:55.263Z,27.45
2022-11-03T18:44:25.318Z,27.21
2022-11-03T18:46:55.484Z,27.18
2022-11-03T18:49:24.088Z,26.85
2022-11-03T18:52:02.117Z,27.23
2022-11-03T18:54:31.581Z,27.19
2022-11-03T18:57:00.257Z,27.22
2022-11-03T18:59:30.927Z,27.14
2022-11-03T19:01:59.531Z,27.02
2022-11-03T19:04:27.838Z,27.29
2022-11-03T19:06:58.527Z,27.23
2022-11-03T19:09:27.727Z,27.39
2022-11-03T19:11:58.037Z,27.28
2022-11-03T19:14:31.828Z,27.35
2022-11-03T19:19:48.678Z,27.33
2022-11-03T19:22:19.989Z,27.19
2022-11-03T19:24:48.076Z,27.55
2022-11-03T19:27:18.310Z,27.27
2022-11-03T19:29:47.296Z,27.43
2022-11-03T19:32:18.393Z,27.01
2022-11-03T19:34:46.733Z,27.25
2022-11-03T19:37:15.823Z,27.01
2022-11-03T19:39:45.328Z,27.14
2022-11-03T19:42:31.998Z,27.06
2022-11-03T19:45:01.138Z,27.31
2022-11-03T19:47:33.252Z,26.89
2022-11-03T19:50:01.846Z,27.13
2022-11-03T19:52:31.549Z,26.97
2022-11-03T19:55:02.491Z,26.91
2022-11-03T19:57:31.034Z,27.52
2022-11-03T19:59:59.839Z,27.56
2022-11-03T20:02:29.235Z,27.21
2022-11-03T20:04:57.586Z,27.47
2022-11-03T20:07:31.506Z,27.70
2022-11-03T20:10:02.845Z,27.16
2022-11-03T20:12:32.262Z,27.59
2022-11-03T20:15:00.368Z,27.66
2022-11-03T20:17:28.994Z,27.48
2022-11-03T20:19:57.373Z,27.68
2022-11-03T20:22:29.157Z,27.34
2022-11-03T20:24:57.368Z,26.75
2022-11-03T20:27:27.340Z,27.63
2022-11-03T20:29:56.170Z,27.58
2022-11-03T20:32:24.284Z,27.41
2022-11-03T20:34:52.704Z,27.60
2022-11-03T20:37:22.030Z,27.63
2022-11-03T20:39:50.381Z,27.61
2022-11-03T20:42:21.716Z,27.24
2022-11-03T20:44:51.877Z,27.36
2022-11-03T20:47:21.018Z,27.41
2022-11-03T20:49:49.346Z,27.60
2022-11-03T20:52:17.681Z,27.73
2022-11-03T20:54:46.309Z,27.84
2022-11-03T20:57:14.682Z,27.90
2022-11-03T20:59:43.094Z,27.70
2022-11-03T21:02:14.166Z,27.58
2022-11-03T21:04:43.325Z,27.64
2022-11-03T21:07:13.201Z,27.71
2022-11-03T21:09:42.225Z,27.79
2022-11-03T21:12:13.773Z,27.44
2022-11-03T21:15:04.210Z,27.87
2022-11-03T21:17:50.825Z,27.87
2022-11-03T21:20:19.162Z,28.20
2022-11-03T21:22:54.676Z,28.24
2022-11-03T21:25:24.704Z,28.04
2022-11-03T21:27:53.850Z,28.09
2022-11-03T21:30:23.209Z,27.98
2022-11-03T21:32:52.890Z,27.78
2022-11-03T21:35:22.602Z,27.47
2022-11-03T21:37:50.773Z,28.13
2022-11-03T21:40:19.183Z,27.68
2022-11-03T21:43:04.577Z,27.81
2022-11-03T21:45:33.091Z,27.64
2022-11-03T21:48:20.771Z,27.37
2022-11-03T21:50:49.434Z,27.98
2022-11-03T21:53:17.517Z,27.99
2022-11-03T21:55:48.433Z,27.89
2022-11-03T21:58:16.529Z,28.03
2022-11-03T22:00:47.167Z,27.83
2022-11-03T22:03:16.876Z,27.72
2022-11-03T22:05:45.357Z,27.95
2022-11-03T22:08:13.543Z,27.94
2022-11-03T22:10:42.272Z,27.81
2022-11-03T22:13:11.051Z,27.90
2022-11-03T22:15:56.998Z,27.74
2022-11-03T22:18:26.609Z,27.85
2022-11-03T22:21:12.739Z,27.91
2022-11-03T22:23:58.079Z,28.06
2022-11-03T22:26:43.655Z,28.07
2022-11-03T22:29:29.233Z,28.30
2022-11-03T22:31:57.678Z,28.37
2022-11-03T22:34:44.807Z,28.29
2022-11-03T22:37:13.216Z,28.40
2022-11-03T22:39:59.172Z,28.46
2022-11-03T22:45:35.320Z,28.36
2022-11-03T22:48:04.823Z,28.38
2022-11-03T22:50:34.259Z,28.19
2022-11-03T22:53:23.050Z,28.36
2022-11-03T22:55:50.144Z,28.00
2022-11-03T22:58:18.640Z,28.35
2022-11-03T23:00:48.074Z,28.18
2022-11-03T23:03:18.107Z,28.53
2022-11-03T23:05:47.644Z,28.60
2022-11-03T23:08:16.062Z,28.75
2022-11-03T23:10:44.124Z,28.54
2022-11-03T23:13:12.217Z,28.77
2022-11-03T23:15:43.823Z,28.70
2022-11-03T23:18:29.107Z,28.66
2022-11-03T23:21:07.808Z,28.13
2022-11-03T23:23:54.002Z,28.07
2022-11-03T23:26:22.692Z,28.28
2022-11-03T23:28:51.025Z,28.44
2022-11-03T23:31:19.598Z,28.22
2022-11-03T23:33:47.817Z,28.49
2022-11-03T23:36:18.767Z,27.97
2022-11-03T23:38:47.250Z,27.98
2022-11-03T23:41:16.661Z,28.17
2022-11-03T23:43:45.941Z,28.58
2022-11-03T23:46:33.209Z,28.52
2022-11-03T23:49:01.697Z,28.49
2022-11-03T23:51:32.074Z,28.48
2022-11-03T23:54:01.521Z,28.76
2022-11-03T23:56:49.446Z,28.56
2022-11-03T23:59:18.330Z,29.11
